createdAt,value
2018-05-13T00:02:12.605Z,20.67
2018-05-13T00:04:39.052Z,20.55
2018-05-13T00:07:05.459Z,20.60
2018-05-13T00:09:31.910Z,20.70
2018-05-13T00:11:58.297Z,20.64
2018-05-13T00:14:24.711Z,20.40
2018-05-13T00:16:51.876Z,20.22
2018-05-13T00:19:18.294Z,20.34
2018-05-13T00:21:45.437Z,20.28
2018-05-13T00:24:12.592Z,20.07
2018-05-13T00:26:39.755Z,19.88
2018-05-13T00:29:06.187Z,19.89
2018-05-13T00:31:32.611Z,20.06
2018-05-13T00:33:58.971Z,20.19
2018-05-13T00:36:25.439Z,20.01
2018-05-13T00:38:51.863Z,19.64
2018-05-13T00:41:18.302Z,19.49
2018-05-13T00:43:44.734Z,19.47
2018-05-13T00:46:11.097Z,19.36
2018-05-13T00:48:37.485Z,19.23
2018-05-13T00:51:03.906Z,19.23
2018-05-13T00:53:30.334Z,19.27
2018-05-13T00:55:56.893Z,19.22
2018-05-13T00:58:23.307Z,19.23
2018-05-13T01:00:49.717Z,19.31
2018-05-13T01:03:16.119Z,19.20
2018-05-13T01:05:42.551Z,19.00
2018-05-13T01:08:10.064Z,18.87
2018-05-13T01:10:36.439Z,19.03
2018-05-13T01:13:02.905Z,18.95
2018-05-13T01:15:29.614Z,18.81
2018-05-13T01:17:56.051Z,18.91
2018-05-13T01:20:22.418Z,18.85
2018-05-13T01:22:48.799Z,18.68
2018-05-13T01:25:15.199Z,18.53
2018-05-13T01:27:41.653Z,18.45
2018-05-13T01:30:08.907Z,18.25
2018-05-13T01:32:35.665Z,18.38
2018-05-13T01:35:02.122Z,18.29
2018-05-13T01:37:28.536Z,18.21
2018-05-13T01:39:54.927Z,18.13
2018-05-13T01:42:22.071Z,18.16
2018-05-13T01:44:48.446Z,18.14
2018-05-13T01:47:14.796Z,18.20
2018-05-13T01:49:41.128Z,18.21
2018-05-13T01:52:07.473Z,18.34
2018-05-13T01:54:33.863Z,18.37
2018-05-13T01:57:00.315Z,18.40
2018-05-13T01:59:26.689Z,18.17
2018-05-13T02:01:53.066Z,18.15
2018-05-13T02:04:19.387Z,18.25
2018-05-13T02:06:46.517Z,18.30
2018-05-13T02:09:13.662Z,18.50
2018-05-13T02:11:40.757Z,18.55
2018-05-13T02:14:07.138Z,18.51
2018-05-13T02:16:39.201Z,18.45
2018-05-13T02:19:05.585Z,18.36
2018-05-13T02:21:36.589Z,18.22
2018-05-13T02:24:03.236Z,18.14
2018-05-13T02:26:29.573Z,18.13
2018-05-13T02:28:55.931Z,18.13
2018-05-13T02:31:22.283Z,18.16
2018-05-13T02:33:48.633Z,18.11
2018-05-13T02:36:15.026Z,18.10
2018-05-13T02:38:41.409Z,18.00
2018-05-13T02:41:07.747Z,17.97
2018-05-13T02:43:34.130Z,17.92
2018-05-13T02:46:00.487Z,18.00
2018-05-13T02:48:27.654Z,17.92
2018-05-13T02:50:54.064Z,17.94
2018-05-13T02:53:21.165Z,17.88
2018-05-13T02:55:47.553Z,17.89
2018-05-13T02:58:13.884Z,18.02
2018-05-13T03:00:40.377Z,18.00
2018-05-13T03:03:06.920Z,17.89
2018-05-13T03:05:33.236Z,17.83
2018-05-13T03:07:59.602Z,17.85
2018-05-13T03:10:26.686Z,17.84
2018-05-13T03:12:53.035Z,17.92
2018-05-13T03:15:19.524Z,17.81
2018-05-13T03:17:45.856Z,17.97
2018-05-13T03:20:12.230Z,17.78
2018-05-13T03:22:38.629Z,17.80
2018-05-13T03:25:05.006Z,17.78
2018-05-13T03:27:31.361Z,17.76
2018-05-13T03:29:57.695Z,18.02
2018-05-13T03:32:24.783Z,18.01
2018-05-13T03:34:51.222Z,17.97
2018-05-13T03:37:17.550Z,17.92
2018-05-13T03:39:44.034Z,17.80
2018-05-13T03:42:11.122Z,17.95
2018-05-13T03:44:37.457Z,17.81
2018-05-13T03:47:03.801Z,17.74
2018-05-13T03:49:30.173Z,17.71
2018-05-13T03:51:57.369Z,17.96
2018-05-13T03:54:23.808Z,17.93
2018-05-13T03:56:50.945Z,17.75
2018-05-13T03:59:17.336Z,17.65
2018-05-13T04:01:44.618Z,17.63
2018-05-13T04:04:11.019Z,17.70
2018-05-13T04:06:37.375Z,17.87
2018-05-13T04:09:22.174Z,17.70
2018-05-13T04:12:07.031Z,17.47
2018-05-13T04:14:52.558Z,17.42
2018-05-13T04:17:18.887Z,17.52
2018-05-13T04:19:45.270Z,17.40
2018-05-13T04:22:11.633Z,17.18
2018-05-13T04:24:38.738Z,17.29
2018-05-13T04:27:05.090Z,17.42
2018-05-13T04:29:31.415Z,17.38
2018-05-13T04:31:57.749Z,17.26
2018-05-13T04:34:24.229Z,17.31
2018-05-13T04:36:50.943Z,17.25
2018-05-13T04:39:18.042Z,17.11
2018-05-13T04:41:44.403Z,17.04
2018-05-13T04:44:10.754Z,17.18
2018-05-13T04:46:37.852Z,17.10
2018-05-13T04:49:04.196Z,17.07
2018-05-13T04:51:30.529Z,17.09
2018-05-13T04:53:56.903Z,17.08
2018-05-13T04:56:23.271Z,17.07
2018-05-13T04:58:49.709Z,17.13
2018-05-13T05:01:16.138Z,17.09
2018-05-13T05:03:42.503Z,16.96
2018-05-13T05:06:08.855Z,17.25
2018-05-13T05:08:35.327Z,17.19
2018-05-13T05:11:01.767Z,17.03
2018-05-13T05:13:28.156Z,17.11
2018-05-13T05:15:54.686Z,17.15
2018-05-13T05:18:21.070Z,17.26
2018-05-13T05:20:47.450Z,17.35
2018-05-13T05:23:13.815Z,17.60
2018-05-13T05:25:40.244Z,17.90
2018-05-13T05:28:06.582Z,18.11
2018-05-13T05:30:33.021Z,18.29
2018-05-13T05:32:59.421Z,18.30
2018-05-13T05:35:25.771Z,17.97
2018-05-13T05:37:52.223Z,18.00
2018-05-13T05:40:18.563Z,18.13
2018-05-13T05:42:45.045Z,18.10
2018-05-13T05:45:11.391Z,17.93
2018-05-13T05:47:37.804Z,17.98
2018-05-13T05:50:04.129Z,18.06
2018-05-13T05:52:30.621Z,18.03
2018-05-13T05:54:57.801Z,17.86
2018-05-13T05:57:24.167Z,18.12
2018-05-13T05:59:50.642Z,18.23
2018-05-13T06:02:17.122Z,18.47
2018-05-13T06:04:43.461Z,18.52
2018-05-13T06:07:09.798Z,18.87
2018-05-13T06:09:36.241Z,18.87
2018-05-13T06:12:02.576Z,18.54
2018-05-13T06:14:28.914Z,18.79
2018-05-13T06:16:55.295Z,19.25
2018-05-13T06:19:21.663Z,19.65
2018-05-13T06:21:47.989Z,20.03
2018-05-13T06:24:14.321Z,19.97
2018-05-13T06:26:40.660Z,19.75
2018-05-13T06:29:07.014Z,20.01
2018-05-13T06:31:33.352Z,19.95
2018-05-13T06:33:59.646Z,19.53
2018-05-13T06:36:26.397Z,19.53
2018-05-13T06:38:52.868Z,19.71
2018-05-13T06:41:20.002Z,19.57
2018-05-13T06:43:47.106Z,19.52
2018-05-13T06:46:13.461Z,19.47
2018-05-13T06:48:39.879Z,19.31
2018-05-13T06:51:06.378Z,19.38
2018-05-13T06:53:32.542Z,19.46
2018-05-13T06:55:58.888Z,19.04
2018-05-13T06:58:25.270Z,19.07
2018-05-13T07:00:51.662Z,19.04
2018-05-13T07:03:18.757Z,19.35
2018-05-13T07:05:45.124Z,19.27
2018-05-13T07:08:11.512Z,18.93
2018-05-13T07:10:37.922Z,19.07
2018-05-13T07:13:04.470Z,19.11
2018-05-13T07:15:30.846Z,19.37
2018-05-13T07:17:57.242Z,19.49
2018-05-13T07:20:23.629Z,20.10
2018-05-13T07:22:50.809Z,20.57
2018-05-13T07:25:17.673Z,20.82
2018-05-13T07:27:44.019Z,20.64
2018-05-13T07:30:10.379Z,20.47
2018-05-13T07:32:37.506Z,20.12
2018-05-13T07:35:03.952Z,19.99
2018-05-13T07:37:31.928Z,20.25
2018-05-13T07:39:59.042Z,19.94
2018-05-13T07:42:25.366Z,20.19
2018-05-13T07:44:51.734Z,20.36
2018-05-13T07:47:18.192Z,20.46
2018-05-13T07:49:44.612Z,20.27
2018-05-13T07:52:11.759Z,20.03
2018-05-13T07:54:38.890Z,20.11
2018-05-13T07:57:05.252Z,19.87
2018-05-13T07:59:31.620Z,19.76
2018-05-13T08:01:58.010Z,19.74
2018-05-13T08:04:24.427Z,19.70
2018-05-13T08:06:51.528Z,19.61
2018-05-13T08:09:17.954Z,19.65
2018-05-13T08:11:44.463Z,19.63
2018-05-13T08:14:10.959Z,19.85
2018-05-13T08:16:37.327Z,19.99
2018-05-13T08:19:03.652Z,20.14
2018-05-13T08:21:29.951Z,20.12
2018-05-13T08:23:56.400Z,20.01
2018-05-13T08:26:23.481Z,19.86
2018-05-13T08:28:49.862Z,19.90
2018-05-13T08:31:16.198Z,19.89
2018-05-13T08:33:43.287Z,19.83
2018-05-13T08:36:10.166Z,19.80
2018-05-13T08:38:36.503Z,19.90
2018-05-13T08:41:02.894Z,19.83
2018-05-13T08:43:29.284Z,19.86
2018-05-13T08:45:56.398Z,19.94
2018-05-13T08:48:22.789Z,19.85
2018-05-13T08:50:49.165Z,19.76
2018-05-13T08:53:15.536Z,19.77
2018-05-13T08:55:41.970Z,19.73
2018-05-13T08:58:08.340Z,19.69
2018-05-13T09:00:34.678Z,19.59
2018-05-13T09:03:01.010Z,19.59
2018-05-13T09:05:27.413Z,19.46
2018-05-13T09:07:54.011Z,19.34
2018-05-13T09:10:20.457Z,19.34
2018-05-13T09:12:46.778Z,19.42
2018-05-13T09:15:13.657Z,19.42
2018-05-13T09:17:40.023Z,19.51
2018-05-13T09:20:06.454Z,19.55
2018-05-13T09:22:32.760Z,19.46
2018-05-13T09:24:59.141Z,19.45
2018-05-13T09:27:26.244Z,19.72
2018-05-13T09:29:52.658Z,19.72
2018-05-13T09:32:19.031Z,19.69
2018-05-13T09:34:45.418Z,19.83
2018-05-13T09:37:11.977Z,20.00
2018-05-13T09:39:38.356Z,20.06
2018-05-13T09:42:04.659Z,20.44
2018-05-13T09:44:31.010Z,20.78
2018-05-13T09:46:57.361Z,20.75
2018-05-13T09:49:23.720Z,21.00
2018-05-13T09:51:50.094Z,20.99
2018-05-13T09:54:17.359Z,21.10
2018-05-13T09:56:43.712Z,21.44
2018-05-13T09:59:10.153Z,21.54
2018-05-13T10:01:36.502Z,21.09
2018-05-13T10:04:07.034Z,21.14
2018-05-13T10:06:33.394Z,21.15
2018-05-13T10:09:00.531Z,21.24
2018-05-13T10:11:26.968Z,21.43
2018-05-13T10:13:54.071Z,21.82
2018-05-13T10:16:20.495Z,21.75
2018-05-13T10:18:47.033Z,21.89
2018-05-13T10:21:13.922Z,21.92
2018-05-13T10:23:40.249Z,22.03
2018-05-13T10:26:06.787Z,22.05
2018-05-13T10:28:33.149Z,22.24
2018-05-13T10:30:59.536Z,22.36
2018-05-13T10:33:25.911Z,22.69
2018-05-13T10:35:52.246Z,22.81
2018-05-13T10:38:18.697Z,23.14
2018-05-13T10:40:44.998Z,22.99
2018-05-13T10:43:11.401Z,23.12
2018-05-13T10:45:37.813Z,22.80
2018-05-13T10:48:04.296Z,22.97
2018-05-13T10:50:30.713Z,23.24
2018-05-13T10:52:57.843Z,23.00
2018-05-13T10:55:24.233Z,22.65
2018-05-13T10:57:50.659Z,22.15
2018-05-13T11:00:16.987Z,21.90
2018-05-13T11:02:43.426Z,21.52
2018-05-13T11:05:10.701Z,21.39
2018-05-13T11:07:37.102Z,21.19
2018-05-13T11:10:03.546Z,21.30
2018-05-13T11:12:29.959Z,21.33
2018-05-13T11:14:56.371Z,21.24
2018-05-13T11:17:23.565Z,21.05
2018-05-13T11:19:49.950Z,21.02
2018-05-13T11:22:16.254Z,21.05
2018-05-13T11:24:42.619Z,20.95
2018-05-13T11:27:09.099Z,20.74
2018-05-13T11:29:35.525Z,20.65
2018-05-13T11:32:02.195Z,20.58
2018-05-13T11:34:28.605Z,20.27
2018-05-13T11:36:55.006Z,20.16
2018-05-13T11:39:21.392Z,20.05
2018-05-13T11:41:48.686Z,20.08
2018-05-13T11:44:15.159Z,20.04
2018-05-13T11:46:41.595Z,19.91
2018-05-13T11:49:07.963Z,20.01
2018-05-13T11:51:34.404Z,20.01
2018-05-13T11:54:00.888Z,19.96
2018-05-13T11:56:27.800Z,19.85
2018-05-13T11:58:54.229Z,19.91
2018-05-13T12:01:20.576Z,19.89
2018-05-13T12:03:49.483Z,19.88
2018-05-13T12:06:15.942Z,19.98
2018-05-13T12:08:47.434Z,20.20
2018-05-13T12:11:13.870Z,20.29
2018-05-13T12:13:40.265Z,20.31
2018-05-13T12:16:10.933Z,19.82
2018-05-13T12:18:37.427Z,19.50
2018-05-13T12:21:03.813Z,19.21
2018-05-13T12:23:30.724Z,19.32
2018-05-13T12:25:57.050Z,19.23
2018-05-13T12:28:24.850Z,19.13
2018-05-13T12:30:51.251Z,19.04
2018-05-13T12:33:17.712Z,18.98
2018-05-13T12:35:44.394Z,18.86
2018-05-13T12:38:10.780Z,18.84
2018-05-13T12:40:37.286Z,18.88
2018-05-13T12:43:03.670Z,19.05
2018-05-13T12:45:30.944Z,19.18
2018-05-13T12:47:58.029Z,19.20
2018-05-13T12:50:24.405Z,19.33
2018-05-13T12:52:50.882Z,19.55
2018-05-13T12:55:17.262Z,19.42
2018-05-13T12:57:44.424Z,19.40
2018-05-13T13:00:11.265Z,19.15
2018-05-13T13:02:37.636Z,19.19
2018-05-13T13:05:03.998Z,19.35
2018-05-13T13:07:30.391Z,19.46
2018-05-13T13:09:56.769Z,19.63
2018-05-13T13:12:23.133Z,19.74
2018-05-13T13:14:49.550Z,19.42
2018-05-13T13:17:15.877Z,19.31
2018-05-13T13:19:42.238Z,19.06
2018-05-13T13:22:08.710Z,19.20
2018-05-13T13:24:35.750Z,19.12
2018-05-13T13:27:02.969Z,18.58
2018-05-13T13:29:29.418Z,18.63
2018-05-13T13:31:55.783Z,18.86
2018-05-13T13:34:26.143Z,19.03
2018-05-13T13:36:52.500Z,19.13
2018-05-13T13:39:19.055Z,19.10
2018-05-13T13:41:45.417Z,19.21
2018-05-13T13:44:12.626Z,19.22
2018-05-13T13:46:39.002Z,19.24
2018-05-13T13:49:05.440Z,19.03
2018-05-13T13:51:32.623Z,18.88
2018-05-13T13:53:59.081Z,18.81
2018-05-13T13:56:25.446Z,18.81
2018-05-13T13:58:52.563Z,18.70
2018-05-13T14:01:19.325Z,18.39
2018-05-13T14:03:46.396Z,18.49
2018-05-13T14:06:12.748Z,18.39
2018-05-13T14:08:39.277Z,18.19
2018-05-13T14:11:05.683Z,18.09
2018-05-13T14:13:32.019Z,18.08
2018-05-13T14:15:58.356Z,17.96
2018-05-13T14:18:24.792Z,18.00
2018-05-13T14:20:51.352Z,18.02
2018-05-13T14:23:18.813Z,18.00
2018-05-13T14:25:45.218Z,17.87
2018-05-13T14:28:11.684Z,17.95
2018-05-13T14:30:38.228Z,17.88
2018-05-13T14:33:04.666Z,17.76
2018-05-13T14:35:31.065Z,17.70
2018-05-13T14:37:57.565Z,17.70
2018-05-13T14:40:23.936Z,17.66
2018-05-13T14:42:50.342Z,17.60
2018-05-13T14:45:16.830Z,17.53
2018-05-13T14:47:43.860Z,17.44
2018-05-13T14:50:10.178Z,17.61
2018-05-13T14:52:36.657Z,17.67
2018-05-13T14:55:03.107Z,17.72
2018-05-13T14:57:29.518Z,17.83
2018-05-13T14:59:55.962Z,17.75
2018-05-13T15:02:22.420Z,17.45
2018-05-13T15:04:49.301Z,17.64
2018-05-13T15:07:28.967Z,17.50
2018-05-13T15:09:55.429Z,17.71
2018-05-13T15:12:22.729Z,17.94
2018-05-13T15:14:49.151Z,17.87
2018-05-13T15:17:15.525Z,17.95
2018-05-13T15:19:41.952Z,18.05
2018-05-13T15:22:08.488Z,17.93
2018-05-13T15:24:34.894Z,17.82
2018-05-13T15:27:02.128Z,17.79
2018-05-13T15:29:29.239Z,17.89
2018-05-13T15:31:55.684Z,17.85
2018-05-13T15:34:22.110Z,17.81
2018-05-13T15:36:48.501Z,17.77
2018-05-13T15:39:14.952Z,17.96
2018-05-13T15:41:41.361Z,18.06
2018-05-13T15:44:08.593Z,17.96
2018-05-13T15:46:34.991Z,18.12
2018-05-13T15:49:01.502Z,18.14
2018-05-13T15:51:27.757Z,18.23
2018-05-13T15:53:54.181Z,18.39
2018-05-13T15:56:20.691Z,18.48
2018-05-13T15:58:47.818Z,18.50
2018-05-13T16:01:14.908Z,18.39
2018-05-13T16:03:41.435Z,18.39
2018-05-13T16:06:07.861Z,18.41
2018-05-13T16:08:34.262Z,18.27
2018-05-13T16:11:00.795Z,18.21
2018-05-13T16:13:27.938Z,18.18
2018-05-13T16:15:55.128Z,18.02
2018-05-13T16:18:21.523Z,17.95
2018-05-13T16:20:49.326Z,18.24
2018-05-13T16:23:15.661Z,18.35
2018-05-13T16:25:42.146Z,18.19
2018-05-13T16:28:08.743Z,18.30
2018-05-13T16:30:35.277Z,18.15
2018-05-13T16:33:01.733Z,18.26
2018-05-13T16:35:28.119Z,18.36
2018-05-13T16:37:54.615Z,18.38
2018-05-13T16:40:21.712Z,18.21
2018-05-13T16:42:48.103Z,17.79
2018-05-13T16:45:14.492Z,17.89
2018-05-13T16:47:40.953Z,17.69
2018-05-13T16:50:08.027Z,17.57
2018-05-13T16:52:34.524Z,17.52
2018-05-13T16:55:00.929Z,17.27
2018-05-13T16:57:27.459Z,17.30
2018-05-13T16:59:53.910Z,17.01
2018-05-13T17:02:20.755Z,17.19
2018-05-13T17:04:47.134Z,17.19
2018-05-13T17:07:13.550Z,17.21
2018-05-13T17:09:40.963Z,17.16
2018-05-13T17:12:07.275Z,17.04
2018-05-13T17:14:33.814Z,17.12
2018-05-13T17:17:00.171Z,17.07
2018-05-13T17:19:26.667Z,17.00
2018-05-13T17:21:53.317Z,17.29
2018-05-13T17:24:20.026Z,17.32
2018-05-13T17:26:46.485Z,17.19
2018-05-13T17:29:12.988Z,17.19
2018-05-13T17:31:39.563Z,17.17
2018-05-13T17:34:06.319Z,16.96
2018-05-13T17:36:32.938Z,17.05
2018-05-13T17:38:59.431Z,17.10
2018-05-13T17:41:26.002Z,17.04
2018-05-13T17:43:52.553Z,17.01
2018-05-13T17:46:18.975Z,16.95
2018-05-13T17:48:46.499Z,16.78
2018-05-13T17:51:13.060Z,16.76
2018-05-13T17:53:39.686Z,16.75
2018-05-13T17:56:06.200Z,16.70
2018-05-13T17:58:33.669Z,16.66
2018-05-13T18:01:00.580Z,16.50
2018-05-13T18:03:27.116Z,16.48
2018-05-13T18:05:53.661Z,16.40
2018-05-13T18:08:20.567Z,16.52
2018-05-13T18:10:47.118Z,16.55
2018-05-13T18:13:13.610Z,16.53
2018-05-13T18:15:40.228Z,16.44
2018-05-13T18:18:06.874Z,16.42
2018-05-13T18:20:33.474Z,16.42
2018-05-13T18:22:59.875Z,16.50
2018-05-13T18:25:26.290Z,16.56
2018-05-13T18:27:52.753Z,16.39
2018-05-13T18:30:19.211Z,16.11
2018-05-13T18:32:45.750Z,16.25
2018-05-13T18:35:12.872Z,16.01
2018-05-13T18:37:40.070Z,15.96
2018-05-13T18:40:07.291Z,16.13
2018-05-13T18:42:33.751Z,16.06
2018-05-13T18:45:00.259Z,15.98
2018-05-13T18:47:26.875Z,15.97
2018-05-13T18:49:54.131Z,15.89
2018-05-13T18:52:22.662Z,15.82
2018-05-13T18:54:49.126Z,15.68
2018-05-13T18:57:15.748Z,15.83
2018-05-13T18:59:42.559Z,15.70
2018-05-13T19:02:09.239Z,15.72
2018-05-13T19:04:35.653Z,15.70
2018-05-13T19:07:02.184Z,15.73
2018-05-13T19:09:29.000Z,15.78
2018-05-13T19:11:55.727Z,15.92
2018-05-13T19:14:22.852Z,15.89
2018-05-13T19:16:50.069Z,15.82
2018-05-13T19:19:16.549Z,15.84
2018-05-13T19:21:42.970Z,15.84
2018-05-13T19:24:10.187Z,15.74
2018-05-13T19:26:36.651Z,15.70
2018-05-13T19:29:03.454Z,15.76
2018-05-13T19:31:30.162Z,15.81
2018-05-13T19:33:56.620Z,15.79
2018-05-13T19:36:23.167Z,15.84
2018-05-13T19:38:49.711Z,15.82
2018-05-13T19:41:16.370Z,15.97
2018-05-13T19:47:19.343Z,16.46
2018-05-13T19:49:46.165Z,15.78
2018-05-13T19:52:12.615Z,15.47
2018-05-13T19:54:39.021Z,15.54
2018-05-13T19:57:05.427Z,15.35
2018-05-13T19:59:31.758Z,15.25
2018-05-13T20:01:58.117Z,15.40
2018-05-13T20:04:24.443Z,15.48
2018-05-13T20:06:50.842Z,15.37
2018-05-13T20:09:18.012Z,15.66
2018-05-13T20:11:44.357Z,15.43
2018-05-13T20:14:10.839Z,15.29
2018-05-13T20:16:37.210Z,15.37
2018-05-13T20:19:03.643Z,15.35
2018-05-13T20:21:30.046Z,15.31
2018-05-13T20:23:57.115Z,15.31
2018-05-13T20:26:23.448Z,15.35
2018-05-13T20:28:49.788Z,15.41
2018-05-13T20:31:16.195Z,15.53
2018-05-13T20:33:42.575Z,15.63
2018-05-13T20:36:08.909Z,15.43
2018-05-13T20:38:35.266Z,15.65
2018-05-13T20:41:02.440Z,15.70
2018-05-13T20:43:28.858Z,15.47
2018-05-13T20:45:55.222Z,15.45
2018-05-13T20:48:21.906Z,15.48
2018-05-13T20:50:48.300Z,15.43
2018-05-13T20:53:14.660Z,15.44
2018-05-13T20:55:41.094Z,15.46
2018-05-13T20:58:07.455Z,15.44
2018-05-13T21:00:33.849Z,15.59
2018-05-13T21:03:00.211Z,15.70
2018-05-13T21:05:27.382Z,15.65
2018-05-13T21:07:53.731Z,15.67
2018-05-13T21:10:20.100Z,15.52
2018-05-13T21:12:46.478Z,15.59
2018-05-13T21:15:12.894Z,15.40
2018-05-13T21:17:39.318Z,15.64
2018-05-13T21:20:05.752Z,15.41
2018-05-13T21:22:32.097Z,15.19
2018-05-13T21:24:58.423Z,15.24
2018-05-13T21:27:24.782Z,15.20
2018-05-13T21:29:51.122Z,15.32
2018-05-13T21:32:18.215Z,15.25
2018-05-13T21:34:45.314Z,15.26
2018-05-13T21:37:11.677Z,15.18
2018-05-13T21:39:38.721Z,15.33
2018-05-13T21:42:05.869Z,15.33
2018-05-13T21:44:32.959Z,15.31
2018-05-13T21:46:59.376Z,15.40
2018-05-13T21:49:25.678Z,15.21
2018-05-13T21:51:52.794Z,15.12
2018-05-13T21:54:19.158Z,15.01
2018-05-13T21:56:46.298Z,15.21
2018-05-13T21:59:12.622Z,15.10
2018-05-13T22:01:38.964Z,15.09
2018-05-13T22:04:06.148Z,15.12
2018-05-13T22:06:32.458Z,15.24
2018-05-13T22:08:59.517Z,15.16
2018-05-13T22:11:25.828Z,15.31
2018-05-13T22:13:52.893Z,15.37
2018-05-13T22:16:19.665Z,15.19
2018-05-13T22:18:46.008Z,15.23
2018-05-13T22:21:12.356Z,15.17
2018-05-13T22:23:39.475Z,15.09
2018-05-13T22:26:05.774Z,15.10
2018-05-13T22:28:32.106Z,15.15
2018-05-13T22:30:58.453Z,15.11
2018-05-13T22:33:24.845Z,15.25
2018-05-13T22:35:51.898Z,15.38
2018-05-13T22:38:18.330Z,15.19
2018-05-13T22:40:44.677Z,15.16
2018-05-13T22:43:11.012Z,15.00
2018-05-13T22:45:37.462Z,14.99
2018-05-13T22:48:03.861Z,15.02
2018-05-13T22:50:30.200Z,15.17
2018-05-13T22:52:56.539Z,15.13
2018-05-13T22:55:23.307Z,15.08
2018-05-13T22:57:49.612Z,15.03
2018-05-13T23:00:16.005Z,14.97
2018-05-13T23:02:43.073Z,14.91
2018-05-13T23:05:09.398Z,14.86
2018-05-13T23:07:35.829Z,14.87
2018-05-13T23:10:02.252Z,14.91
2018-05-13T23:12:28.597Z,15.00
2018-05-13T23:14:54.930Z,15.03
2018-05-13T23:17:21.325Z,15.02
2018-05-13T23:19:48.398Z,14.95
2018-05-13T23:22:33.025Z,14.75
2018-05-13T23:24:59.345Z,14.75
2018-05-13T23:27:25.973Z,14.82
2018-05-13T23:29:52.349Z,14.72
2018-05-13T23:32:18.663Z,14.75
2018-05-13T23:34:45.762Z,14.78
2018-05-13T23:37:12.077Z,14.81
2018-05-13T23:39:38.419Z,14.66
2018-05-13T23:42:04.742Z,14.68
2018-05-13T23:44:31.065Z,14.69
2018-05-13T23:46:57.385Z,14.77
2018-05-13T23:49:23.706Z,14.73
2018-05-13T23:51:50.169Z,14.82
2018-05-13T23:54:16.502Z,14.75
2018-05-13T23:56:42.895Z,14.79
2018-05-13T23:59:09.198Z,14.69
